Time;durP1;ratioP1;P1;durP2;ratioP2;P2;SDS_P1;SDS_P2;PMS_P1;PMS_P2;Temp;Humidity;BMP_temperature;BMP_pressure;BME280_temperature;BME280_humidity;BME280_pressure;Samples;Min_cycle;Max_cycle;Signal;HPM_P1;HPM_P2
2024/04/09 00:00:45;;;;;;;13.50;4.88;;;;;;;13.89;100.00;97522.13;6107998;19;20003;-70
2024/04/09 00:02:45;;;;;;;13.10;3.78;;;;;;;13.88;100.00;97518.56;6107883;19;20405;-70
2024/04/09 00:04:46;;;;;;;10.30;3.40;;;;;;;13.88;100.00;97518.56;6107341;19;20006;-70
2024/04/09 00:06:46;;;;;;;14.18;4.90;;;;;;;13.84;100.00;97512.28;6106506;19;20110;-70
2024/04/09 00:08:47;;;;;;;11.95;3.92;;;;;;;13.82;100.00;97505.56;6106682;19;20359;-70
2024/04/09 00:10:48;;;;;;;14.20;3.58;;;;;;;13.81;100.00;97507.56;6106519;19;20011;-70
2024/04/09 00:12:48;;;;;;;11.05;3.78;;;;;;;13.77;100.00;97506.84;6107315;19;20038;-70
2024/04/09 00:14:48;;;;;;;15.80;4.97;;;;;;;13.75;100.00;97498.16;6107181;19;20002;-70
2024/04/09 00:16:49;;;;;;;10.82;3.25;;;;;;;13.71;100.00;97505.75;6100216;19;19999;-70
2024/04/09 00:18:49;;;;;;;10.07;3.92;;;;;;;13.65;100.00;97499.09;6097502;19;20005;-70
2024/04/09 00:20:53;;;;;;;8.70;3.20;;;;;;;13.58;100.00;97504.78;6099655;19;20022;-70
2024/04/09 00:22:54;;;;;;;9.55;3.33;;;;;;;13.53;100.00;97499.69;6099352;19;20077;-70
2024/04/09 00:24:54;;;;;;;11.48;3.42;;;;;;;13.57;100.00;97489.31;6100017;19;20012;-70
2024/04/09 00:26:55;;;;;;;13.18;3.85;;;;;;;13.54;100.00;97488.16;6098296;19;20480;-70
2024/04/09 00:28:55;;;;;;;13.20;3.53;;;;;;;13.53;100.00;97480.25;6098310;19;20044;-70
2024/04/09 00:30:56;;;;;;;12.82;3.40;;;;;;;13.51;100.00;97480.69;6100060;19;20006;-70
2024/04/09 00:32:57;;;;;;;16.35;4.03;;;;;;;13.44;100.00;97470.47;6098904;19;20463;-70
2024/04/09 00:34:58;;;;;;;14.15;4.03;;;;;;;13.47;100.00;97474.38;6098668;19;20021;-70
2024/04/09 00:36:59;;;;;;;16.05;3.53;;;;;;;13.47;100.00;97474.38;6099668;19;20906;-70
2024/04/09 00:39:03;;;;;;;8.05;3.25;;;;;;;13.45;100.00;97477.59;6103378;19;20122;-70
2024/04/09 00:41:05;;;;;;;21.55;3.85;;;;;;;13.43;100.00;97484.78;6105481;19;20305;-70
2024/04/09 00:43:08;;;;;;;13.43;3.67;;;;;;;13.40;100.00;97480.81;6103093;19;20017;-70
2024/04/09 00:45:08;;;;;;;;;;;;;;;13.40;100.00;97474.47;6104871;19;20007;-70
2024/04/09 00:47:09;;;;;;;13.13;4.23;;;;;;;13.39;100.00;97472.91;6104628;19;19927;-70
2024/04/09 00:49:13;;;;;;;12.73;3.20;;;;;;;13.37;100.00;97478.13;6103449;19;20846;-70
2024/04/09 00:51:18;;;;;;;13.30;3.80;;;;;;;13.33;100.00;97480.97;6104043;19;20013;-70
2024/04/09 00:53:18;;;;;;;11.23;3.40;;;;;;;13.29;100.00;97473.88;6104883;19;20211;-70
2024/04/09 00:55:24;;;;;;;7.75;3.10;;;;;;;13.31;100.00;97465.91;6103975;19;20006;-70
2024/04/09 00:57:25;;;;;;;16.60;4.28;;;;;;;13.28;100.00;97470.31;6104128;19;20099;-70
2024/04/09 00:59:26;;;;;;;10.27;3.95;;;;;;;13.26;100.00;97477.50;6104734;19;20298;-70
2024/04/09 01:01:26;;;;;;;19.10;4.05;;;;;;;13.35;100.00;97470.22;6105181;19;20010;-70
2024/04/09 01:03:27;;;;;;;12.88;3.67;;;;;;;13.43;100.00;97457.78;6103598;19;20012;-70
2024/04/09 01:05:30;;;;;;;9.77;3.25;;;;;;;13.50;100.00;97456.88;6105174;19;20003;-70
2024/04/09 01:07:31;;;;;;;15.68;4.20;;;;;;;13.56;100.00;97460.72;6103808;19;20331;-70
2024/04/09 01:09:31;;;;;;;14.18;3.40;;;;;;;13.59;100.00;97464.69;6104562;19;20002;-70
2024/04/09 01:11:32;;;;;;;14.43;3.78;;;;;;;13.61;100.00;97468.59;6103690;19;20020;-70
2024/04/09 01:13:32;;;;;;;10.88;3.35;;;;;;;13.61;100.00;97457.47;6105331;19;20463;-70
2024/04/09 01:15:32;;;;;;;10.68;3.33;;;;;;;13.63;100.00;97459.81;6104071;19;20027;-70
2024/04/09 01:17:34;;;;;;;12.32;3.20;;;;;;;13.66;100.00;97461.78;6110093;19;20011;-70
2024/04/09 01:19:35;;;;;;;12.90;3.53;;;;;;;13.64;100.00;97458.63;6111057;19;20339;-70
2024/04/09 01:21:35;;;;;;;9.63;3.38;;;;;;;13.64;100.00;97459.41;6111533;19;20024;-70
2024/04/09 01:23:36;;;;;;;12.52;3.88;;;;;;;13.64;100.00;97461.41;6110436;19;20011;-70
2024/04/09 01:25:36;;;;;;;9.82;3.42;;;;;;;13.59;100.00;97451.56;6110887;19;20009;-70
2024/04/09 01:27:40;;;;;;;10.23;3.55;;;;;;;13.60;100.00;97455.13;6109584;19;20355;-70
2024/04/09 01:29:41;;;;;;;10.77;3.47;;;;;;;13.62;100.00;97450.72;6110483;19;20026;-70
2024/04/09 01:31:42;;;;;;;9.30;3.20;;;;;;;13.62;100.00;97461.81;6110285;19;20324;-70
2024/04/09 01:33:43;;;;;;;10.10;3.22;;;;;;;13.64;100.00;97466.94;6110951;19;20054;-70
2024/04/09 01:35:43;;;;;;;11.57;3.40;;;;;;;13.62;100.00;97455.47;6111150;19;20009;-70
2024/04/09 01:37:43;;;;;;;9.15;3.28;;;;;;;13.59;100.00;97454.34;6110552;19;20009;-70
2024/04/09 01:39:45;;;;;;;11.52;3.83;;;;;;;13.56;100.00;97440.50;6108779;19;20019;-70
2024/04/09 01:41:46;;;;;;;12.40;4.05;;;;;;;13.54;100.00;97446.47;6111408;19;19999;-70
2024/04/09 01:43:46;;;;;;;10.60;3.40;;;;;;;13.53;100.00;97441.34;6109954;19;20017;-70
2024/04/09 01:45:47;;;;;;;11.50;3.55;;;;;;;13.53;100.00;97444.13;6109735;19;20014;-70
2024/04/09 01:47:47;;;;;;;9.98;3.58;;;;;;;13.47;100.00;97435.47;6109740;19;19999;-70
2024/04/09 01:49:48;;;;;;;10.30;3.88;;;;;;;13.48;100.00;97437.03;6106450;19;20006;-70
2024/04/09 01:51:49;;;;;;;10.82;3.70;;;;;;;13.49;100.00;97433.88;6109889;19;20012;-70
2024/04/09 01:53:49;;;;;;;11.20;3.55;;;;;;;13.48;100.00;97429.50;6110335;19;20382;-70
2024/04/09 01:55:58;;;;;;;15.30;4.82;;;;;;;13.44;100.00;97430.78;6109937;19;20474;-70
2024/04/09 01:57:59;;;;;;;12.25;4.75;;;;;;;13.45;100.00;97438.69;6109964;19;20109;-70
2024/04/09 02:00:05;;;;;;;12.90;3.53;;;;;;;13.48;100.00;97440.59;6108825;19;20349;-70
2024/04/09 02:02:08;;;;;;;10.73;3.95;;;;;;;13.52;100.00;97443.34;6109457;19;20331;-70
2024/04/09 02:04:10;;;;;;;16.83;3.97;;;;;;;13.56;100.00;97446.84;6109865;19;20006;-70
2024/04/09 02:06:15;;;;;;;9.18;3.00;;;;;;;13.61;100.00;97442.78;6109036;19;20014;-70
2024/04/09 02:08:15;;;;;;;7.85;3.10;;;;;;;13.58;100.00;97449.22;6108802;19;20090;-71
2024/04/09 02:10:16;;;;;;;8.43;3.15;;;;;;;13.58;100.00;97438.88;6108154;19;20011;-70
2024/04/09 02:12:16;;;;;;;7.80;3.28;;;;;;;13.55;100.00;97448.03;6109716;19;20007;-70
2024/04/09 02:14:16;;;;;;;11.98;3.70;;;;;;;13.52;100.00;97437.78;6109257;19;20006;-70
2024/04/09 02:16:16;;;;;;;7.95;3.13;;;;;;;13.51;100.00;97452.88;6110650;19;20867;-70
2024/04/09 02:18:17;;;;;;;10.60;3.22;;;;;;;13.53;100.00;97447.69;6108851;19;20082;-70
2024/04/09 02:20:17;;;;;;;12.35;3.40;;;;;;;13.52;100.00;97442.56;6109222;19;20022;-70
2024/04/09 02:22:17;;;;;;;13.20;3.58;;;;;;;13.52;100.00;97445.34;6109270;19;20026;-70
2024/04/09 02:24:18;;;;;;;15.10;4.03;;;;;;;13.48;100.00;97446.16;6110112;19;20003;-70
2024/04/09 02:26:18;;;;;;;9.57;3.25;;;;;;;13.52;100.00;97439.78;6109636;19;20459;-70
2024/04/09 02:28:18;;;;;;;13.00;3.83;;;;;;;13.52;100.00;97442.56;6108629;19;20009;-70
2024/04/09 02:30:19;;;;;;;9.88;3.90;;;;;;;13.48;100.00;97428.72;6108433;19;20003;-70
2024/04/09 02:32:19;;;;;;;21.17;6.03;;;;;;;13.47;100.00;97427.13;6110241;19;20460;-70
2024/04/09 02:34:24;;;;;;;13.23;3.60;;;;;;;13.47;100.00;97427.13;6108988;19;20037;-70
2024/04/09 02:36:24;;;;;;;15.65;4.05;;;;;;;13.42;100.00;97422.88;6110222;19;20020;-70
2024/04/09 02:38:25;;;;;;;10.52;3.80;;;;;;;13.42;100.00;97422.09;6108819;19;20007;-70
2024/04/09 02:40:26;;;;;;;9.90;3.60;;;;;;;13.42;100.00;97416.53;6110427;19;20010;-70
2024/04/09 02:42:26;;;;;;;10.55;3.50;;;;;;;13.38;100.00;97415.78;6110089;19;20015;-70
2024/04/09 02:44:29;;;;;;;7.95;3.20;;;;;;;13.39;100.00;97420.91;6109972;19;20006;-70
2024/04/09 02:46:29;;;;;;;15.50;3.42;;;;;;;13.37;100.00;97420.56;6110447;19;20024;-70
2024/04/09 02:48:30;;;;;;;14.32;3.80;;;;;;;13.36;100.00;97427.31;6107844;19;20337;-70
2024/04/09 02:50:30;;;;;;;11.05;3.78;;;;;;;13.35;100.00;97430.53;6109303;19;20003;-70
2024/04/09 02:52:30;;;;;;;10.85;4.28;;;;;;;13.31;100.00;97424.22;6109858;19;19998;-70
2024/04/09 02:54:31;;;;;;;12.85;3.60;;;;;;;13.33;100.00;97430.97;6109985;19;20003;-70
2024/04/09 02:56:31;;;;;;;13.88;3.65;;;;;;;13.33;100.00;97430.97;6109262;19;20013;-70
2024/04/09 02:58:34;;;;;;;14.60;4.15;;;;;;;13.36;100.00;97434.88;6107903;19;20479;-70
2024/04/09 03:00:38;;;;;;;23.38;4.75;;;;;;;13.33;100.00;97433.75;6108841;19;20011;-70
2024/04/09 03:02:39;;;;;;;13.50;3.63;;;;;;;13.38;100.00;97440.78;6107252;19;20019;-70
2024/04/09 03:04:39;;;;;;;13.40;3.70;;;;;;;13.38;100.00;97435.22;6109576;19;20002;-70
2024/04/09 03:06:39;;;;;;;16.08;3.97;;;;;;;13.44;100.00;97419.66;6109752;19;20007;-70
2024/04/09 03:08:41;;;;;;;16.30;3.55;;;;;;;13.45;100.00;97424.00;6107874;19;20017;-70
2024/04/09 03:10:41;;;;;;;8.65;3.80;;;;;;;13.45;100.00;97433.13;6109385;19;20090;-70
2024/04/09 03:12:42;;;;;;;10.38;3.50;;;;;;;13.43;100.00;97432.00;6107275;19;20007;-70
2024/04/09 03:14:42;;;;;;;16.55;5.20;;;;;;;13.39;100.00;97431.25;6110497;19;20011;-70
2024/04/09 03:16:42;;;;;;;13.60;4.38;;;;;;;13.41;100.00;97432.41;6108705;19;20007;-70
2024/04/09 03:18:44;;;;;;;28.83;4.85;;;;;;;13.48;100.00;97437.81;6107275;19;20018;-70
2024/04/09 03:20:44;;;;;;;11.70;3.78;;;;;;;13.54;100.00;97442.91;6109025;19;20007;-70
2024/04/09 03:22:44;;;;;;;15.13;3.85;;;;;;;13.54;100.00;97445.69;6108657;19;20017;-70
2024/04/09 03:24:47;;;;;;;9.88;3.40;;;;;;;13.61;100.00;97448.34;6108981;19;20372;-70
2024/04/09 03:26:48;;;;;;;;;;;;;;;13.62;100.00;97455.47;6109328;19;20003;-70
2024/04/09 03:28:49;;;;;;;17.20;4.25;;;;;;;13.64;100.00;97453.84;6107325;19;19962;-71
2024/04/09 03:31:00;;;;;;;20.52;4.75;;;;;;;13.65;100.00;97457.41;6108856;19;20002;-70
2024/04/09 03:33:00;;;;;;;18.13;4.95;;;;;;;13.61;100.00;97456.69;6108663;19;20487;-70
2024/04/09 03:35:01;;;;;;;20.75;4.60;;;;;;;13.57;100.00;97458.72;6105024;19;20003;-70
2024/04/09 03:37:01;;;;;;;13.27;3.55;;;;;;;13.48;100.00;97454.50;6107961;19;20272;-70
2024/04/09 03:39:04;;;;;;;11.13;3.85;;;;;;;13.45;100.00;97452.56;6106131;19;20030;-70
2024/04/09 03:41:06;;;;;;;15.57;4.25;;;;;;;13.43;100.00;97443.88;6107950;19;20013;-70
2024/04/09 03:43:07;;;;;;;15.90;4.95;;;;;;;13.40;100.00;97443.94;6107330;19;20530;-70
2024/04/09 03:45:09;;;;;;;16.75;3.97;;;;;;;13.39;100.00;97448.69;6107305;19;20087;-70
2024/04/09 03:47:09;;;;;;;14.80;4.75;;;;;;;13.39;100.00;97436.81;6105491;19;20009;-70
2024/04/09 03:49:09;;;;;;;20.17;4.63;;;;;;;13.36;100.00;97449.56;6106090;19;20461;-70
2024/04/09 03:51:11;;;;;;;13.40;3.70;;;;;;;13.35;100.00;97447.19;6106428;19;20576;-70
2024/04/09 03:53:11;;;;;;;19.77;4.85;;;;;;;13.34;100.00;97438.09;6107473;19;20031;-70
2024/04/09 03:55:12;;;;;;;13.73;4.13;;;;;;;13.40;100.00;97441.94;6107478;19;20007;-70
2024/04/09 03:57:12;;;;;;;11.52;4.30;;;;;;;13.43;100.00;97441.09;6105493;19;20015;-70
2024/04/09 03:59:12;;;;;;;12.40;4.18;;;;;;;13.45;100.00;97424.00;6106700;19;20007;-70
2024/04/09 04:01:12;;;;;;;13.13;4.38;;;;;;;13.58;100.00;97421.44;6107951;19;20015;-70
2024/04/09 04:03:13;;;;;;;20.38;4.50;;;;;;;13.68;100.00;97420.44;6107612;19;20013;-69
2024/04/09 04:05:13;;;;;;;15.68;4.40;;;;;;;13.68;100.00;97418.44;6107251;19;20003;-70
2024/04/09 04:07:15;;;;;;;14.63;4.25;;;;;;;13.66;100.00;97423.66;6107066;19;20006;-70
2024/04/09 04:09:16;;;;;;;12.82;3.80;;;;;;;13.63;100.00;97415.34;6107051;19;20009;-70
2024/04/09 04:11:16;;;;;;;20.30;4.90;;;;;;;13.56;100.00;97412.69;6106526;19;20006;-70
2024/04/09 04:13:16;;;;;;;13.82;4.13;;;;;;;13.62;100.00;97419.34;6110633;19;20018;-70
2024/04/09 04:15:17;;;;;;;18.00;3.47;;;;;;;13.62;100.00;97417.34;6102969;19;20447;-70
2024/04/09 04:17:17;;;;;;;15.15;4.10;;;;;;;13.93;100.00;97411.66;6111269;19;20038;-70
2024/04/09 04:19:18;;;;;;;13.10;3.35;;;;;;;14.09;100.00;97419.28;6111941;19;20011;-70
2024/04/09 04:21:20;;;;;;;19.90;4.07;;;;;;;14.06;100.00;97413.34;6112977;19;20363;-70
2024/04/09 04:23:20;;;;;;;20.15;3.95;;;;;;;14.03;100.00;97407.88;6112618;19;20002;-70
2024/04/09 04:25:21;;;;;;;17.25;4.50;;;;;;;13.95;100.00;97414.78;6111375;19;20594;-70
2024/04/09 04:27:21;;;;;;;16.20;4.15;;;;;;;13.85;100.00;97418.56;6111511;19;20014;-70
2024/04/09 04:29:22;;;;;;;14.00;3.85;;;;;;;13.76;100.00;97422.66;6110700;19;20041;-70
2024/04/09 04:31:23;;;;;;;18.02;4.00;;;;;;;13.70;100.00;97427.13;6111517;19;20006;-70
2024/04/09 04:33:24;;;;;;;17.15;4.43;;;;;;;13.62;100.00;97420.13;6112052;19;20008;-70
2024/04/09 04:35:25;;;;;;;19.35;4.63;;;;;;;13.60;100.00;97422.56;6110536;19;20016;-70
2024/04/09 04:37:25;;;;;;;12.77;3.90;;;;;;;13.55;100.00;97417.47;6110305;19;20017;-70
2024/04/09 04:39:26;;;;;;;17.15;4.45;;;;;;;13.50;100.00;97420.75;6110326;19;20010;-70
2024/04/09 04:41:26;;;;;;;13.18;4.15;;;;;;;13.41;100.00;97410.19;6111419;19;20040;-70
2024/04/09 04:43:27;;;;;;;11.25;3.75;;;;;;;13.40;100.00;97413.38;6112970;19;20455;-70
2024/04/09 04:45:29;;;;;;;23.05;4.60;;;;;;;13.36;100.00;97407.88;6111130;19;20029;-70
2024/04/09 04:47:29;;;;;;;16.45;4.40;;;;;;;13.37;100.00;97406.66;6111207;19;20003;-70
2024/04/09 04:49:30;;;;;;;16.10;3.90;;;;;;;13.35;100.00;97408.31;6111560;19;20009;-70
2024/04/09 04:51:30;;;;;;;16.40;4.00;;;;;;;13.36;100.00;97404.31;6111569;19;20025;-70
2024/04/09 04:53:30;;;;;;;19.55;5.28;;;;;;;13.38;100.00;97411.00;6111438;19;20035;-70
2024/04/09 04:55:32;;;;;;;15.40;3.88;;;;;;;13.42;100.00;97417.31;6111502;19;20011;-70
2024/04/09 04:57:32;;;;;;;18.97;4.60;;;;;;;13.47;100.00;97411.25;6110850;19;20014;-70
2024/04/09 04:59:33;;;;;;;14.13;4.63;;;;;;;13.63;100.00;97420.91;6110070;19;20014;-70
2024/04/09 05:01:34;;;;;;;15.98;4.50;;;;;;;13.62;100.00;97411.00;6111677;19;20011;-70
2024/04/09 05:03:34;;;;;;;17.13;4.60;;;;;;;13.61;100.00;97406.66;6112322;19;20014;-70
2024/04/09 05:05:35;;;;;;;21.60;4.28;;;;;;;13.61;100.00;97404.66;6111457;19;20014;-70
2024/04/09 05:07:36;;;;;;;21.77;4.90;;;;;;;13.57;100.00;97408.72;6111175;19;20010;-70
2024/04/09 05:09:36;;;;;;;14.90;4.35;;;;;;;13.53;100.00;97416.34;6110770;19;20006;-70
2024/04/09 05:11:36;;;;;;;20.30;4.72;;;;;;;13.49;100.00;97417.19;6111425;19;20027;-70
2024/04/09 05:13:37;;;;;;;20.90;4.70;;;;;;;13.48;100.00;97415.59;6111605;19;20353;-70
2024/04/09 05:15:37;;;;;;;12.68;3.72;;;;;;;13.44;100.00;97408.53;6109640;19;20237;-70
2024/04/09 05:17:37;;;;;;;14.52;4.75;;;;;;;13.45;100.00;97424.78;6103567;19;20429;-70
2024/04/09 05:19:37;;;;;;;13.93;3.58;;;;;;;13.44;100.00;97414.09;6103915;19;20431;-70
2024/04/09 05:21:38;;;;;;;18.45;4.35;;;;;;;13.39;100.00;97415.34;6104191;19;20007;-70
2024/04/09 05:23:38;;;;;;;18.48;5.88;;;;;;;13.37;100.00;97415.00;6102752;19;20007;-70
2024/04/09 05:25:38;;;;;;;12.52;3.92;;;;;;;13.35;100.00;97430.53;6102521;19;20014;-70
2024/04/09 05:27:39;;;;;;;16.55;4.38;;;;;;;13.35;100.00;97433.31;6098931;19;20016;-70
2024/04/09 05:29:40;;;;;;;22.52;5.10;;;;;;;13.33;100.00;97430.97;6103225;19;21021;-70
2024/04/09 05:31:41;;;;;;;13.55;4.82;;;;;;;13.39;100.00;97439.56;6104222;19;20007;-70
2024/04/09 05:33:42;;;;;;;16.83;4.60;;;;;;;13.37;100.00;97430.88;6103656;19;20527;-70
2024/04/09 05:35:43;;;;;;;18.42;5.53;;;;;;;13.35;100.00;97445.22;6101828;19;20031;-70
2024/04/09 05:37:43;;;;;;;19.05;5.28;;;;;;;13.31;100.00;97447.25;6099449;19;20006;-70
2024/04/09 05:39:45;;;;;;;16.13;5.18;;;;;;;13.25;100.00;97445.38;6099212;19;20407;-70
2024/04/09 05:41:45;;;;;;;12.30;3.83;;;;;;;13.28;100.00;97447.31;6099105;19;20083;-70
2024/04/09 05:43:45;;;;;;;19.67;4.95;;;;;;;13.27;100.00;97445.75;6100441;19;20010;-70
2024/04/09 05:45:46;;;;;;;12.48;4.00;;;;;;;13.28;100.00;97444.53;6100162;19;20383;-70
2024/04/09 05:47:47;;;;;;;16.58;4.32;;;;;;;13.31;100.00;97444.47;6100010;19;20444;-70
2024/04/09 05:49:47;;;;;;;18.15;4.53;;;;;;;13.33;100.00;97449.63;6100229;19;20019;-70
2024/04/09 05:51:47;;;;;;;19.80;4.82;;;;;;;13.36;100.00;97446.78;6103304;19;20014;-70
2024/04/09 05:53:49;;;;;;;16.10;5.93;;;;;;;13.43;100.00;97445.88;6102992;19;20011;-70
2024/04/09 05:55:55;;;;;;;20.02;4.85;;;;;;;13.48;100.00;97446.16;6103236;19;20014;-69
2024/04/09 05:57:56;;;;;;;17.60;5.20;;;;;;;13.52;100.00;97450.91;6102590;19;22506;-70
2024/04/09 05:59:56;;;;;;;16.40;5.07;;;;;;;13.54;100.00;97435.38;6103266;19;20463;-70
2024/04/09 06:01:57;;;;;;;23.98;5.03;;;;;;;13.63;100.00;97448.72;6103180;19;20379;-70
2024/04/09 06:03:58;;;;;;;28.13;6.07;;;;;;;13.66;100.00;97445.88;6102385;19;20014;-70
2024/04/09 06:05:59;;;;;;;19.58;5.22;;;;;;;13.75;100.00;97448.91;6103808;19;20339;-70
2024/04/09 06:07:59;;;;;;;15.82;4.63;;;;;;;13.81;100.00;97454.75;6100471;19;20009;-70
2024/04/09 06:10:00;;;;;;;18.42;5.15;;;;;;;13.90;100.00;97448.63;6101878;19;20041;-70
2024/04/09 06:12:00;;;;;;;18.55;4.63;;;;;;;13.97;100.00;97448.50;6103489;19;20046;-70
2024/04/09 06:14:00;;;;;;;17.67;5.70;;;;;;;14.05;100.00;97452.72;6102417;19;20003;-70
2024/04/09 06:16:01;;;;;;;24.83;5.03;;;;;;;14.10;100.00;97445.88;6104548;19;20009;-70
2024/04/09 06:18:01;;;;;;;14.93;4.38;;;;;;;14.19;100.00;97454.47;6109079;19;20032;-70
2024/04/09 06:20:04;;;;;;;19.60;4.43;;;;;;;14.25;100.00;97447.19;6109050;19;19995;-71
2024/04/09 06:22:05;;;;;;;17.65;4.25;;;;;;;14.29;100.00;97445.91;6109813;19;19999;-70
2024/04/09 06:24:07;;;;;;;17.75;3.92;;;;;;;14.33;100.00;97452.19;6109805;19;20720;-70
2024/04/09 06:26:07;;;;;;;11.35;3.88;;;;;;;14.37;100.00;97442.97;6108170;19;20371;-70
2024/04/09 06:28:07;;;;;;;9.75;3.60;;;;;;;14.39;100.00;97437.75;6109767;19;19998;-70
2024/04/09 06:30:08;;;;;;;20.80;5.70;;;;;;;14.42;100.00;97448.84;6108603;19;20026;-70
2024/04/09 06:32:08;;;;;;;15.18;4.15;;;;;;;14.44;100.00;97449.19;6109215;19;20022;-70
2024/04/09 06:34:09;;;;;;;19.08;4.88;;;;;;;14.47;100.00;97450.34;6109469;19;20305;-70
2024/04/09 06:36:10;;;;;;;18.83;4.07;;;;;;;14.51;100.00;97442.72;6107990;19;20003;-70
2024/04/09 06:38:10;;;;;;;14.75;4.20;;;;;;;14.55;100.00;97440.63;6109044;19;20343;-70
2024/04/09 06:40:10;;;;;;;23.05;5.28;;;;;;;14.59;100.00;97449.72;6108475;19;20066;-70
2024/04/09 06:42:11;;;;;;;16.08;4.95;;;;;;;14.61;100.00;97448.06;6109621;19;20369;-70
2024/04/09 06:44:11;;;;;;;23.02;5.18;;;;;;;14.70;100.00;97452.25;6108566;19;20066;-70
2024/04/09 06:46:12;;;;;;;19.25;5.18;;;;;;;14.79;100.00;97460.81;6109273;19;20069;-70
2024/04/09 06:48:12;;;;;;;18.55;5.20;;;;;;;14.87;100.00;97465.00;6108797;19;20007;-70
2024/04/09 06:50:13;;;;;;;28.60;5.60;;;;;;;14.93;100.00;97465.31;6108788;19;20070;-70
2024/04/09 06:52:13;;;;;;;22.35;5.28;;;;;;;15.01;100.00;97469.50;6108312;19;20050;-70
2024/04/09 06:54:14;;;;;;;15.45;4.47;;;;;;;15.06;100.00;97455.84;6109590;19;20078;-70
2024/04/09 06:56:14;;;;;;;15.85;5.63;;;;;;;15.15;100.00;97475.53;6108515;19;20003;-70
2024/04/09 06:58:14;;;;;;;12.02;4.63;;;;;;;15.24;100.00;97469.38;6108310;19;20563;-70
2024/04/09 07:00:15;;;;;;;18.95;5.28;;;;;;;15.30;100.00;97467.63;6108196;19;19998;-70
2024/04/09 07:02:16;;;;;;;18.58;4.70;;;;;;;15.38;100.00;97468.22;6109505;19;20003;-70
2024/04/09 07:04:17;;;;;;;27.98;5.35;;;;;;;15.45;100.00;97470.84;6107332;19;20009;-70
2024/04/09 07:06:17;;;;;;;22.83;5.40;;;;;;;15.54;100.00;97462.66;6108214;19;20346;-70
2024/04/09 07:08:17;;;;;;;25.30;5.55;;;;;;;15.55;100.00;97460.66;6107765;19;20094;-70
2024/04/09 07:10:18;;;;;;;23.90;6.07;;;;;;;15.60;100.00;97465.72;6107523;19;20011;-70
2024/04/09 07:12:18;;;;;;;21.55;6.32;;;;;;;15.67;100.00;97473.94;6107334;19;20364;-70
2024/04/09 07:14:18;;;;;;;18.58;6.18;;;;;;;15.73;100.00;97484.16;6109287;19;20564;-70
2024/04/09 07:16:19;;;;;;;19.00;5.38;;;;;;;15.81;100.00;97484.75;6108575;19;20062;-70
2024/04/09 07:18:20;;;;;;;31.45;6.05;;;;;;;15.88;100.00;97483.75;6108740;19;20007;-70
2024/04/09 07:20:21;;;;;;;26.00;6.68;;;;;;;15.96;100.00;97485.94;6107440;19;20321;-70
2024/04/09 07:22:21;;;;;;;24.60;5.95;;;;;;;16.07;100.00;97491.25;6107828;19;20019;-70
2024/04/09 07:24:22;;;;;;;23.10;5.38;;;;;;;16.20;100.00;97492.09;6108409;19;20014;-70
2024/04/09 07:26:22;;;;;;;20.23;5.45;;;;;;;16.27;100.00;97488.31;6107355;19;20062;-70
2024/04/09 07:28:23;;;;;;;19.05;5.85;;;;;;;16.38;100.00;97499.97;6106899;19;20008;-70
2024/04/09 07:30:24;;;;;;;25.17;6.20;;;;;;;16.47;100.00;97488.97;6107631;19;20458;-70
2024/04/09 07:32:24;;;;;;;24.35;5.18;;;;;;;16.64;100.00;97500.09;6108717;19;20002;-70
2024/04/09 07:34:25;;;;;;;30.35;6.70;;;;;;;16.77;100.00;97498.91;6108001;19;20010;-70
2024/04/09 07:36:25;;;;;;;23.25;6.15;;;;;;;16.91;100.00;97500.53;6108575;19;20007;-70
2024/04/09 07:38:25;;;;;;;22.48;5.45;;;;;;;17.04;100.00;97497.72;6107675;19;20018;-70
2024/04/09 07:40:26;;;;;;;23.73;5.95;;;;;;;17.16;100.00;97502.56;6107582;19;20011;-70
2024/04/09 07:42:26;;;;;;;25.00;5.35;;;;;;;17.32;100.00;97505.28;6106502;19;20338;-71
2024/04/09 07:44:26;;;;;;;20.75;5.43;;;;;;;17.51;100.00;97505.50;6107033;19;20003;-71
2024/04/09 07:46:27;;;;;;;16.80;4.82;;;;;;;17.66;100.00;97512.97;6108094;19;20086;-71
2024/04/09 07:48:27;;;;;;;18.60;5.00;;;;;;;17.85;100.00;97521.59;6104883;19;20006;-71
2024/04/09 07:50:27;;;;;;;20.23;4.60;;;;;;;18.09;100.00;97508.00;6106778;19;20019;-71
2024/04/09 07:52:28;;;;;;;24.40;5.07;;;;;;;18.40;100.00;97511.72;6107452;19;20009;-71
2024/04/09 07:54:28;;;;;;;20.02;5.18;;;;;;;18.67;100.00;97502.00;6106648;19;20014;-71
2024/04/09 07:56:29;;;;;;;23.45;5.55;;;;;;;19.11;100.00;97510.38;6108195;19;20428;-71
2024/04/09 07:58:29;;;;;;;25.35;4.35;;;;;;;19.43;100.00;97501.50;6105943;19;20002;-71
2024/04/09 08:00:29;;;;;;;17.60;4.07;;;;;;;19.69;100.00;97510.50;6108546;19;20013;-71
2024/04/09 08:02:30;;;;;;;22.55;4.00;;;;;;;19.88;97.29;97509.34;6107780;19;20010;-71
2024/04/09 08:04:32;;;;;;;19.50;4.43;;;;;;;20.05;97.83;97512.66;6106819;19;20554;-70
2024/04/09 08:06:33;;;;;;;26.35;4.55;;;;;;;20.13;93.96;97518.75;6107161;19;20019;-70
2024/04/09 08:08:34;;;;;;;26.23;4.30;;;;;;;20.16;90.07;97503.78;6106380;19;20455;-70
2024/04/09 08:10:35;;;;;;;23.27;4.47;;;;;;;20.33;87.49;97515.50;6107210;19;20030;-70
2024/04/09 08:12:35;;;;;;;26.17;4.53;;;;;;;20.38;88.38;97520.50;6107679;19;20070;-70
2024/04/09 08:14:36;;;;;;;21.33;4.63;;;;;;;20.42;87.64;97518.31;6108328;19;20040;-71
2024/04/09 08:16:37;;;;;;;17.67;4.82;;;;;;;20.39;86.52;97527.69;6107944;19;20039;-71
2024/04/09 08:18:37;;;;;;;26.08;5.43;;;;;;;20.38;89.75;97526.13;6104967;19;20406;-71
2024/04/09 08:20:39;;;;;;;27.33;4.13;;;;;;;20.30;90.96;97525.66;6107586;19;20006;-71
2024/04/09 08:22:40;;;;;;;19.08;3.67;;;;;;;20.26;85.24;97530.63;6107357;19;20003;-71
2024/04/09 08:24:40;;;;;;;13.35;4.00;;;;;;;20.26;85.54;97535.47;6106710;19;20009;-70
2024/04/09 08:26:41;;;;;;;18.98;5.00;;;;;;;20.24;83.78;97538.75;6106572;19;20511;-70
2024/04/09 08:28:41;;;;;;;19.08;4.22;;;;;;;20.26;84.45;97546.69;6105532;19;20075;-70
2024/04/09 08:30:41;;;;;;;18.27;3.88;;;;;;;20.20;85.04;97538.13;6107653;19;20018;-70
2024/04/09 08:32:42;;;;;;;22.25;4.10;;;;;;;20.20;83.12;97552.16;6106576;19;20325;-70
2024/04/09 08:34:44;;;;;;;21.38;3.55;;;;;;;20.20;84.88;97552.94;6106301;19;20035;-70
2024/04/09 08:36:44;;;;;;;15.75;3.72;;;;;;;20.23;85.35;97548.41;6108494;19;20085;-70
2024/04/09 08:38:44;;;;;;;14.60;4.30;;;;;;;20.24;84.27;97560.44;6105495;19;20011;-70
2024/04/09 08:40:45;;;;;;;18.52;3.90;;;;;;;20.26;83.45;97555.13;6107574;19;20014;-70
2024/04/09 08:42:45;;;;;;;21.50;5.90;;;;;;;20.22;81.58;97560.13;6107211;19;20028;-70
2024/04/09 08:44:49;;;;;;;11.15;2.92;;;;;;;20.32;77.15;97567.31;6107318;19;20033;-70
2024/04/09 08:46:52;;;;;;;23.27;3.97;;;;;;;20.36;76.56;97562.34;6106877;19;20038;-70
2024/04/09 08:48:52;;;;;;;;;;;;;;;20.38;79.19;97566.22;6106842;19;20048;-70
2024/04/09 08:50:55;;;;;;;17.33;4.25;;;;;;;20.31;76.61;97566.53;6106932;19;19911;-70
2024/04/09 08:52:58;;;;;;;19.73;3.88;;;;;;;20.41;80.59;97572.94;6107931;19;20006;-70
2024/04/09 08:54:58;;;;;;;17.27;4.13;;;;;;;20.44;79.70;97560.81;6106593;19;20021;-70
2024/04/09 08:56:59;;;;;;;14.52;3.83;;;;;;;20.51;81.55;97568.91;6107548;19;20010;-70
2024/04/09 08:59:04;;;;;;;18.38;3.60;;;;;;;20.63;81.96;97565.19;6105390;19;20007;-70
2024/04/09 09:01:04;;;;;;;21.98;6.25;;;;;;;20.73;75.69;97565.97;6110985;19;20303;-70
2024/04/09 09:03:04;;;;;;;22.27;5.90;;;;;;;20.88;73.88;97571.75;6112157;19;20018;-70
2024/04/09 09:05:15;;;;;;;18.10;4.85;;;;;;;20.90;77.01;97581.28;6112596;19;20014;-70
2024/04/09 09:07:18;;;;;;;13.77;3.10;;;;;;;21.06;77.06;97585.78;6111754;19;20079;-71
2024/04/09 09:09:24;;;;;;;23.85;4.93;;;;;;;21.03;71.69;97586.75;6108824;19;20010;-71
2024/04/09 09:11:24;;;;;;;17.75;3.50;;;;;;;21.10;72.10;97589.25;6109402;19;20002;-71
2024/04/09 09:13:25;;;;;;;20.52;4.32;;;;;;;21.13;72.52;97585.47;6108428;19;20014;-71
2024/04/09 09:15:26;;;;;;;15.20;3.53;;;;;;;21.19;75.58;97600.47;6102854;19;20003;-71
2024/04/09 09:17:29;;;;;;;24.00;4.15;;;;;;;21.19;73.53;97594.84;6109692;19;20106;-71